createdAt,value
2022-08-25T00:01:37.939Z,99.90
2022-08-25T00:04:13.176Z,99.90
2022-08-25T00:06:43.433Z,99.90
2022-08-25T00:09:14.322Z,99.90
2022-08-25T00:11:45.930Z,99.90
2022-08-25T00:14:15.293Z,99.90
2022-08-25T00:16:45.639Z,99.90
2022-08-25T00:19:19.606Z,99.90
2022-08-25T00:21:48.401Z,99.90
2022-08-25T00:24:20.030Z,99.90
2022-08-25T00:26:51.583Z,99.90
2022-08-25T00:29:25.544Z,99.90
2022-08-25T00:32:02.297Z,99.90
2022-08-25T00:34:35.657Z,99.90
2022-08-25T00:37:07.526Z,99.90
2022-08-25T00:39:39.194Z,99.90
2022-08-25T00:42:17.378Z,99.90
2022-08-25T00:44:49.724Z,99.90
2022-08-25T00:47:18.171Z,99.90
2022-08-25T00:49:50.838Z,99.90
2022-08-25T00:52:21.505Z,99.90
2022-08-25T00:54:52.664Z,99.90
2022-08-25T00:57:33.997Z,99.90
2022-08-25T01:00:18.706Z,99.90
2022-08-25T01:02:50.887Z,99.90
2022-08-25T01:05:22.985Z,99.90
2022-08-25T01:07:58.626Z,99.90
2022-08-25T01:10:27.979Z,99.90
2022-08-25T01:12:59.926Z,99.90
2022-08-25T01:15:30.323Z,99.90
2022-08-25T01:18:00.904Z,99.90
2022-08-25T01:20:30.681Z,99.90
2022-08-25T01:23:03.287Z,99.90
2022-08-25T01:25:40.353Z,99.90
2022-08-25T01:28:17.060Z,99.90
2022-08-25T01:30:48.551Z,99.90
2022-08-25T01:33:21.039Z,99.90
2022-08-25T01:36:03.604Z,99.90
2022-08-25T01:38:42.180Z,99.90
2022-08-25T01:41:10.596Z,99.90
2022-08-25T01:43:40.218Z,99.90
2022-08-25T01:46:14.925Z,99.90
2022-08-25T01:48:50.283Z,99.90
2022-08-25T01:51:20.813Z,99.90
2022-08-25T01:53:53.391Z,99.90
2022-08-25T01:56:23.832Z,99.90
2022-08-25T01:58:54.187Z,99.90
2022-08-25T02:01:29.907Z,99.90
2022-08-25T02:03:59.212Z,99.90
2022-08-25T02:06:29.977Z,99.90
2022-08-25T02:09:10.222Z,99.90
2022-08-25T02:11:43.672Z,99.90
2022-08-25T02:14:16.212Z,99.90
2022-08-25T02:16:46.682Z,99.90
2022-08-25T02:19:16.897Z,99.90
2022-08-25T02:21:46.322Z,99.90
2022-08-25T02:24:26.615Z,99.90
2022-08-25T02:27:12.067Z,99.90
2022-08-25T02:29:53.225Z,99.90
2022-08-25T02:32:30.353Z,99.90
2022-08-25T02:35:05.566Z,99.90
2022-08-25T02:37:36.253Z,99.90
2022-08-25T02:40:14.490Z,99.90
2022-08-25T02:42:43.051Z,99.90
2022-08-25T02:45:12.050Z,99.90
2022-08-25T02:47:42.789Z,99.90
2022-08-25T02:50:11.625Z,99.90
2022-08-25T02:55:26.761Z,99.90
2022-08-25T02:57:58.971Z,99.90
2022-08-25T03:00:27.912Z,99.90
2022-08-25T03:02:56.271Z,99.90
2022-08-25T03:05:27.657Z,99.90
2022-08-25T03:08:00.494Z,99.90
2022-08-25T03:10:33.183Z,99.90
2022-08-25T03:13:05.323Z,99.90
2022-08-25T03:15:43.905Z,99.90
2022-08-25T03:18:14.062Z,99.90
2022-08-25T03:20:43.603Z,99.90
2022-08-25T03:23:12.113Z,99.90
2022-08-25T03:26:02.839Z,99.90
2022-08-25T03:28:35.545Z,99.90
2022-08-25T03:31:16.012Z,99.90
2022-08-25T03:33:46.887Z,99.90
2022-08-25T03:36:16.939Z,99.90
2022-08-25T03:39:00.390Z,99.90
2022-08-25T03:41:46.123Z,99.90
2022-08-25T03:44:22.572Z,99.90
2022-08-25T03:46:54.981Z,99.90
2022-08-25T03:49:29.182Z,99.90
2022-08-25T03:52:08.460Z,99.90
2022-08-25T03:54:38.936Z,99.90
2022-08-25T03:57:13.463Z,99.90
2022-08-25T03:59:43.574Z,99.90
2022-08-25T04:02:16.166Z,99.90
2022-08-25T04:04:49.969Z,99.90
2022-08-25T04:07:30.434Z,99.90
2022-08-25T04:10:07.588Z,99.90
2022-08-25T04:12:40.521Z,99.90
2022-08-25T04:15:11.309Z,99.90
2022-08-25T04:17:40.483Z,99.90
2022-08-25T04:20:14.958Z,99.90
2022-08-25T04:22:54.244Z,99.90
2022-08-25T04:25:36.912Z,99.90
2022-08-25T04:28:09.529Z,99.90
2022-08-25T04:30:38.099Z,99.90
2022-08-25T04:33:09.049Z,99.90
2022-08-25T04:35:40.705Z,99.90
2022-08-25T04:38:09.546Z,99.90
2022-08-25T04:40:37.826Z,99.90
2022-08-25T04:43:13.876Z,99.90
2022-08-25T04:45:43.533Z,99.90
2022-08-25T04:48:11.864Z,99.90
2022-08-25T04:50:42.631Z,99.90
2022-08-25T04:53:11.332Z,99.90
2022-08-25T04:55:48.296Z,99.90
2022-08-25T04:58:26.256Z,99.90
2022-08-25T05:01:13.626Z,99.90
2022-08-25T05:04:05.200Z,99.90
2022-08-25T05:06:37.686Z,99.90
2022-08-25T05:09:25.703Z,99.90
2022-08-25T05:11:54.437Z,99.90
2022-08-25T05:17:24.690Z,99.90
2022-08-25T05:19:57.405Z,99.90
2022-08-25T05:22:33.702Z,99.90
2022-08-25T05:25:10.809Z,99.90
2022-08-25T05:27:43.752Z,99.90
2022-08-25T05:30:22.062Z,99.90
2022-08-25T05:33:16.552Z,99.90
2022-08-25T05:35:49.689Z,99.90
2022-08-25T05:38:36.869Z,99.90
2022-08-25T05:41:06.422Z,99.90
2022-08-25T05:43:54.742Z,99.90
2022-08-25T05:46:37.483Z,99.90
2022-08-25T05:49:19.982Z,99.90
2022-08-25T05:51:53.986Z,99.90
2022-08-25T05:54:45.851Z,99.90
2022-08-25T05:57:33.706Z,99.90
2022-08-25T06:00:19.906Z,99.90
2022-08-25T06:03:09.519Z,99.90
2022-08-25T06:06:08.600Z,99.90
2022-08-25T06:08:46.017Z,99.90
2022-08-25T06:11:32.269Z,99.90
2022-08-25T06:14:07.080Z,99.90
2022-08-25T06:16:49.132Z,99.90
2022-08-25T06:19:41.387Z,99.90
2022-08-25T06:22:26.219Z,99.90
2022-08-25T06:25:01.307Z,99.90
2022-08-25T06:27:53.147Z,99.90
2022-08-25T06:30:33.261Z,99.90
2022-08-25T06:33:24.156Z,99.90
2022-08-25T06:36:23.655Z,99.90
2022-08-25T06:39:18.537Z,99.90
2022-08-25T06:41:56.180Z,99.90
2022-08-25T06:44:27.790Z,99.90
2022-08-25T06:47:03.175Z,99.90
2022-08-25T06:49:57.810Z,99.90
2022-08-25T06:52:33.876Z,99.90
2022-08-25T06:55:46.234Z,99.90
2022-08-25T07:01:20.011Z,99.90
2022-08-25T07:03:54.921Z,99.90
2022-08-25T07:06:28.119Z,99.90
2022-08-25T07:09:03.403Z,99.90
2022-08-25T07:11:34.869Z,99.90
2022-08-25T07:14:25.577Z,99.90
2022-08-25T07:17:37.518Z,97.40
2022-08-25T07:20:10.278Z,95.70
2022-08-25T07:22:51.043Z,94.40
2022-08-25T07:25:24.305Z,93.80
2022-08-25T07:28:03.789Z,91.90
2022-08-25T07:30:41.322Z,90.20
2022-08-25T07:33:22.515Z,89.40
2022-08-25T07:35:58.641Z,85.60
2022-08-25T07:38:53.675Z,85.20
2022-08-25T07:41:29.330Z,80.90
2022-08-25T07:44:11.861Z,83.40
2022-08-25T07:49:49.720Z,79.50
2022-08-25T07:55:29.558Z,75.20
2022-08-25T07:58:08.526Z,74.30
2022-08-25T08:00:39.721Z,70.00
2022-08-25T08:03:35.322Z,68.70
2022-08-25T08:06:15.148Z,66.40
2022-08-25T08:09:00.602Z,65.80
2022-08-25T08:11:55.970Z,64.00
2022-08-25T08:14:31.003Z,59.80
2022-08-25T08:17:13.500Z,59.00
2022-08-25T08:22:58.746Z,58.10
2022-08-25T08:25:39.121Z,56.80
2022-08-25T08:28:10.957Z,54.20
2022-08-25T08:30:53.121Z,53.70
2022-08-25T08:33:26.192Z,51.10
2022-08-25T08:36:12.963Z,52.90
2022-08-25T08:38:59.316Z,52.10
2022-08-25T08:42:16.898Z,50.40
2022-08-25T08:45:05.755Z,50.90
2022-08-25T08:47:59.123Z,50.20
2022-08-25T08:50:34.338Z,49.40
2022-08-25T08:53:34.292Z,49.90
2022-08-25T08:56:16.067Z,49.90
2022-08-25T09:02:02.328Z,48.90
2022-08-25T09:04:58.680Z,48.50
2022-08-25T09:07:50.517Z,49.10
2022-08-25T09:10:34.069Z,48.20
2022-08-25T09:13:20.744Z,48.40
2022-08-25T09:16:37.128Z,45.40
2022-08-25T09:19:23.464Z,46.70
2022-08-25T09:22:00.092Z,48.10
2022-08-25T09:27:45.181Z,45.90
2022-08-25T09:30:21.011Z,47.00
2022-08-25T09:33:05.517Z,46.70
2022-08-25T09:35:57.727Z,46.30
2022-08-25T09:39:02.260Z,45.70
2022-08-25T09:41:48.250Z,45.70
2022-08-25T09:44:41.825Z,45.50
2022-08-25T09:50:23.278Z,44.90
2022-08-25T09:53:18.609Z,45.30
2022-08-25T09:56:00.504Z,44.80
2022-08-25T10:02:07.329Z,45.50
2022-08-25T10:04:53.942Z,46.10
2022-08-25T10:07:30.571Z,45.40
2022-08-25T10:10:03.755Z,46.20
2022-08-25T10:12:42.519Z,46.50
2022-08-25T10:15:29.955Z,46.30
2022-08-25T10:18:17.402Z,46.10
2022-08-25T10:21:02.221Z,45.20
2022-08-25T10:23:33.150Z,46.50
2022-08-25T10:26:06.447Z,46.10
2022-08-25T10:28:47.558Z,46.70
2022-08-25T10:31:22.192Z,48.10
2022-08-25T10:33:57.702Z,47.40
2022-08-25T10:36:36.801Z,48.20
2022-08-25T10:39:33.869Z,47.40
2022-08-25T10:42:01.587Z,47.70
2022-08-25T10:44:51.889Z,47.70
2022-08-25T10:47:49.435Z,47.80
2022-08-25T10:50:26.808Z,47.60
2022-08-25T10:53:13.550Z,47.80
2022-08-25T10:55:54.710Z,47.00
2022-08-25T10:58:26.676Z,47.40
2022-08-25T11:01:06.152Z,47.70
2022-08-25T11:03:44.800Z,47.20
2022-08-25T11:06:18.127Z,47.80
2022-08-25T11:08:55.272Z,46.80
2022-08-25T11:11:27.750Z,48.00
2022-08-25T11:13:59.306Z,46.70
2022-08-25T11:16:37.969Z,46.90
2022-08-25T11:19:10.600Z,46.80
2022-08-25T11:21:42.757Z,47.10
2022-08-25T11:24:16.418Z,47.20
2022-08-25T11:26:50.210Z,46.50
2022-08-25T11:29:21.297Z,47.50
2022-08-25T11:31:54.058Z,47.80
2022-08-25T11:34:23.217Z,48.90
2022-08-25T11:36:57.037Z,48.50
2022-08-25T11:39:36.337Z,48.00
2022-08-25T11:42:12.745Z,49.60
2022-08-25T11:44:53.637Z,49.80
2022-08-25T11:47:38.361Z,48.10
2022-08-25T11:50:09.638Z,49.10
2022-08-25T11:52:46.230Z,48.50
2022-08-25T11:55:18.199Z,47.80
2022-08-25T11:57:53.685Z,48.70
2022-08-25T12:00:37.289Z,48.50
2022-08-25T12:03:20.792Z,49.40
2022-08-25T12:05:52.309Z,48.70
2022-08-25T12:08:41.439Z,49.30
2022-08-25T12:11:40.028Z,48.30
2022-08-25T12:14:17.594Z,49.00
2022-08-25T12:17:04.192Z,49.80
2022-08-25T12:19:49.842Z,49.30
2022-08-25T12:22:37.030Z,49.60
2022-08-25T12:25:10.223Z,50.40
2022-08-25T12:27:41.757Z,49.40
2022-08-25T12:30:21.131Z,51.10
2022-08-25T12:32:59.706Z,51.20
2022-08-25T12:35:30.277Z,51.60
2022-08-25T12:38:08.043Z,49.40
2022-08-25T12:40:38.919Z,50.60
2022-08-25T12:43:24.903Z,49.80
2022-08-25T12:46:00.200Z,49.50
2022-08-25T12:48:44.666Z,49.60
2022-08-25T12:51:17.799Z,49.20
2022-08-25T12:53:51.215Z,49.80
2022-08-25T12:56:22.864Z,50.10
2022-08-25T12:59:00.142Z,51.40
2022-08-25T13:01:38.202Z,50.00
2022-08-25T13:04:16.456Z,48.90
2022-08-25T13:07:02.389Z,49.40
2022-08-25T13:09:49.789Z,49.90
2022-08-25T13:12:27.453Z,49.40
2022-08-25T13:15:00.262Z,48.60
2022-08-25T13:17:35.522Z,49.30
2022-08-25T13:20:14.387Z,49.70
2022-08-25T13:22:46.771Z,49.80
2022-08-25T13:25:27.140Z,48.90
2022-08-25T13:28:05.240Z,48.90
2022-08-25T13:30:35.062Z,50.30
2022-08-25T13:33:22.402Z,49.90
2022-08-25T13:36:14.620Z,49.80
2022-08-25T13:38:48.170Z,49.50
2022-08-25T13:41:28.764Z,47.90
2022-08-25T13:44:02.777Z,48.50
2022-08-25T13:46:37.924Z,48.80
2022-08-25T13:49:09.831Z,49.60
2022-08-25T13:51:47.069Z,49.20
2022-08-25T13:54:26.393Z,49.40
2022-08-25T13:56:55.330Z,48.70
2022-08-25T13:59:27.201Z,48.60
2022-08-25T14:02:00.289Z,49.00
2022-08-25T14:04:34.116Z,48.50
2022-08-25T14:07:15.106Z,48.70
2022-08-25T14:09:52.218Z,47.90
2022-08-25T14:12:37.142Z,46.90
2022-08-25T14:15:10.454Z,46.20
2022-08-25T14:17:42.343Z,47.50
2022-08-25T14:20:20.627Z,45.60
2022-08-25T14:22:56.517Z,45.00
2022-08-25T14:25:30.688Z,46.00
2022-08-25T14:28:08.372Z,45.00
2022-08-25T14:30:39.691Z,44.70
2022-08-25T14:33:15.831Z,45.70
2022-08-25T14:35:47.428Z,45.30
2022-08-25T14:38:18.014Z,45.10
2022-08-25T14:40:46.854Z,46.30
2022-08-25T14:43:17.707Z,46.20
2022-08-25T14:45:50.571Z,45.90
2022-08-25T14:48:24.544Z,46.90
2022-08-25T14:50:55.154Z,47.50
2022-08-25T14:53:25.172Z,47.60
2022-08-25T14:55:54.090Z,47.70
2022-08-25T14:58:33.919Z,48.40
2022-08-25T15:01:05.950Z,49.90
2022-08-25T15:03:38.081Z,51.40
2022-08-25T15:06:07.369Z,51.40
2022-08-25T15:08:58.848Z,52.10
2022-08-25T15:11:27.928Z,53.20
2022-08-25T15:14:03.905Z,53.40
2022-08-25T15:16:35.396Z,54.30
2022-08-25T15:19:06.744Z,56.30
2022-08-25T15:21:36.130Z,56.60
2022-08-25T15:24:07.137Z,57.10
2022-08-25T15:26:37.092Z,57.90
2022-08-25T15:29:11.884Z,57.80
2022-08-25T15:31:40.854Z,58.60
2022-08-25T15:34:13.085Z,58.30
2022-08-25T15:36:41.931Z,58.80
2022-08-25T15:39:18.903Z,60.00
2022-08-25T15:41:51.259Z,61.30
2022-08-25T15:44:20.057Z,60.90
2022-08-25T15:46:50.533Z,60.40
2022-08-25T15:49:20.901Z,62.30
2022-08-25T15:51:52.627Z,62.30
2022-08-25T15:54:22.698Z,61.70
2022-08-25T15:56:51.069Z,62.70
2022-08-25T15:59:21.805Z,62.20
2022-08-25T16:01:53.823Z,62.00
2022-08-25T16:04:22.685Z,61.80
2022-08-25T16:07:00.399Z,62.70
2022-08-25T16:09:33.279Z,62.30
2022-08-25T16:12:06.620Z,62.80
2022-08-25T16:14:35.286Z,62.10
2022-08-25T16:17:03.957Z,62.20
2022-08-25T16:19:33.341Z,63.00
2022-08-25T16:22:04.260Z,63.60
2022-08-25T16:24:39.473Z,62.90
2022-08-25T16:27:11.367Z,62.70
2022-08-25T16:29:40.881Z,63.40
2022-08-25T16:32:10.371Z,62.80
2022-08-25T16:34:39.377Z,63.20
2022-08-25T16:37:08.597Z,63.80
2022-08-25T16:39:44.243Z,65.40
2022-08-25T16:42:12.785Z,63.50
2022-08-25T16:44:41.263Z,64.20
2022-08-25T16:47:09.514Z,64.30
2022-08-25T16:49:41.226Z,64.80
2022-08-25T16:52:30.471Z,66.90
2022-08-25T16:55:16.191Z,65.90
2022-08-25T16:57:47.676Z,67.30
2022-08-25T17:00:20.519Z,67.10
2022-08-25T17:02:51.752Z,67.70
2022-08-25T17:05:20.101Z,68.80
2022-08-25T17:08:09.064Z,69.20
2022-08-25T17:10:42.091Z,69.80
2022-08-25T17:13:10.745Z,69.30
2022-08-25T17:15:40.646Z,69.30
2022-08-25T17:18:09.149Z,69.40
2022-08-25T17:20:39.787Z,68.80
2022-08-25T17:23:11.976Z,70.60
2022-08-25T17:25:43.483Z,70.10
2022-08-25T17:28:12.801Z,70.60
2022-08-25T17:30:41.711Z,71.40
2022-08-25T17:33:10.226Z,72.80
2022-08-25T17:35:40.054Z,73.20
2022-08-25T17:38:08.867Z,73.00
2022-08-25T17:40:39.924Z,73.60
2022-08-25T17:43:11.117Z,74.70
2022-08-25T17:45:39.953Z,74.40
2022-08-25T17:48:09.181Z,74.60
2022-08-25T17:50:39.358Z,75.00
2022-08-25T17:53:09.267Z,75.30
2022-08-25T17:55:38.382Z,76.00
2022-08-25T17:58:09.524Z,76.40
2022-08-25T18:00:48.956Z,76.50
2022-08-25T18:03:17.770Z,76.70
2022-08-25T18:05:46.836Z,76.10
2022-08-25T18:08:17.312Z,76.20
2022-08-25T18:10:50.673Z,76.20
2022-08-25T18:13:19.647Z,76.70
2022-08-25T18:15:51.669Z,77.20
2022-08-25T18:18:24.289Z,77.80
2022-08-25T18:20:53.133Z,81.50
2022-08-25T18:23:24.570Z,83.30
2022-08-25T18:26:00.804Z,86.60
2022-08-25T18:28:29.763Z,86.90
2022-08-25T18:30:59.620Z,87.70
2022-08-25T18:33:30.118Z,89.00
2022-08-25T18:36:00.600Z,90.20
2022-08-25T18:38:46.275Z,90.20
2022-08-25T18:41:14.661Z,90.60
2022-08-25T18:43:42.986Z,91.10
2022-08-25T18:46:13.091Z,92.10
2022-08-25T18:48:42.981Z,92.50
2022-08-25T18:51:14.898Z,92.80
2022-08-25T18:53:50.340Z,94.10
2022-08-25T18:56:24.038Z,95.50
2022-08-25T18:58:55.108Z,95.90
2022-08-25T19:01:24.985Z,97.10
2022-08-25T19:03:53.536Z,98.80
2022-08-25T19:06:22.143Z,99.40
2022-08-25T19:08:50.170Z,99.90
2022-08-25T19:11:22.296Z,99.90
2022-08-25T19:13:51.229Z,99.90
2022-08-25T19:16:31.896Z,99.90
2022-08-25T19:19:03.994Z,99.90
2022-08-25T19:21:37.507Z,99.90
2022-08-25T19:24:05.962Z,99.90
2022-08-25T19:26:35.414Z,99.90
2022-08-25T19:29:04.304Z,99.90
2022-08-25T19:31:33.370Z,99.90
2022-08-25T19:34:01.898Z,99.90
2022-08-25T19:36:31.766Z,99.90
2022-08-25T19:39:01.652Z,99.90
2022-08-25T19:41:31.483Z,99.90
2022-08-25T19:44:00.489Z,99.90
2022-08-25T19:46:33.409Z,99.90
2022-08-25T19:49:08.827Z,99.90
2022-08-25T19:51:40.203Z,99.90
2022-08-25T19:54:12.252Z,99.90
2022-08-25T19:56:54.987Z,99.90
2022-08-25T19:59:24.871Z,99.90
2022-08-25T20:01:53.236Z,99.90
2022-08-25T20:04:24.535Z,99.90
2022-08-25T20:06:55.292Z,99.90
2022-08-25T20:09:38.823Z,99.90
2022-08-25T20:15:02.769Z,99.90
2022-08-25T20:17:34.898Z,99.90
2022-08-25T20:20:08.307Z,99.90
2022-08-25T20:22:38.481Z,99.90
2022-08-25T20:25:13.485Z,99.90
2022-08-25T20:27:43.354Z,99.90
2022-08-25T20:30:23.346Z,99.90
2022-08-25T20:32:51.807Z,99.90
2022-08-25T20:35:20.470Z,99.90
2022-08-25T20:38:04.877Z,99.90
2022-08-25T20:40:33.463Z,99.90
2022-08-25T20:43:03.393Z,99.90
2022-08-25T20:45:31.916Z,99.90
2022-08-25T20:48:03.434Z,99.90
2022-08-25T20:50:38.008Z,99.90
2022-08-25T20:53:13.898Z,99.90
2022-08-25T20:55:44.628Z,99.90
2022-08-25T20:58:14.258Z,99.90
2022-08-25T21:00:42.788Z,99.90
2022-08-25T21:03:15.611Z,99.90
2022-08-25T21:05:44.589Z,99.90
2022-08-25T21:08:25.488Z,99.90
2022-08-25T21:10:53.968Z,99.90
2022-08-25T21:13:24.521Z,99.90
2022-08-25T21:15:56.374Z,99.90
2022-08-25T21:18:27.602Z,99.90
2022-08-25T21:21:11.067Z,99.90
2022-08-25T21:23:48.897Z,99.90
2022-08-25T21:26:22.155Z,99.90
2022-08-25T21:28:57.396Z,99.90
2022-08-25T21:31:28.699Z,99.90
2022-08-25T21:34:03.635Z,99.90
2022-08-25T21:36:32.418Z,99.90
2022-08-25T21:39:05.665Z,99.90
2022-08-25T21:41:35.020Z,99.90
2022-08-25T21:44:05.620Z,99.90
2022-08-25T21:46:54.231Z,99.90
2022-08-25T21:49:25.459Z,99.90
2022-08-25T21:52:00.472Z,99.90
2022-08-25T21:54:32.777Z,99.90
2022-08-25T21:57:04.741Z,99.90
2022-08-25T21:59:37.837Z,99.90
2022-08-25T22:02:13.207Z,99.90
2022-08-25T22:04:45.893Z,99.90
2022-08-25T22:07:14.862Z,99.90
2022-08-25T22:09:45.899Z,99.90
2022-08-25T22:12:14.181Z,99.90
2022-08-25T22:14:51.717Z,99.90
2022-08-25T22:17:24.124Z,99.90
2022-08-25T22:19:55.862Z,99.90
2022-08-25T22:22:26.059Z,99.90
2022-08-25T22:24:59.607Z,99.90
2022-08-25T22:27:30.753Z,99.90
2022-08-25T22:30:02.006Z,99.90
2022-08-25T22:32:33.088Z,99.90
2022-08-25T22:35:01.693Z,99.90
2022-08-25T22:37:39.032Z,99.90
2022-08-25T22:40:14.244Z,99.90
2022-08-25T22:42:47.392Z,99.90
2022-08-25T22:45:17.731Z,99.90
2022-08-25T22:47:49.053Z,99.90
2022-08-25T22:50:18.134Z,99.90
2022-08-25T22:52:51.984Z,99.90
2022-08-25T22:55:28.100Z,99.90
2022-08-25T22:57:59.668Z,99.90
2022-08-25T23:00:29.263Z,99.90
2022-08-25T23:02:57.976Z,99.90
2022-08-25T23:05:31.104Z,99.90
2022-08-25T23:08:03.418Z,99.90
2022-08-25T23:10:35.307Z,99.90
2022-08-25T23:13:03.860Z,99.90
2022-08-25T23:15:37.492Z,99.90
2022-08-25T23:18:15.176Z,99.90
2022-08-25T23:21:05.564Z,99.90
2022-08-25T23:23:36.517Z,99.90
2022-08-25T23:26:08.067Z,99.90
2022-08-25T23:28:36.534Z,99.90
2022-08-25T23:31:06.837Z,99.90
2022-08-25T23:33:40.207Z,99.90
2022-08-25T23:36:15.644Z,99.90
2022-08-25T23:38:51.497Z,99.90
2022-08-25T23:41:22.864Z,99.90
2022-08-25T23:43:52.824Z,99.90
2022-08-25T23:46:25.393Z,99.90
2022-08-25T23:48:57.017Z,99.90
2022-08-25T23:51:31.152Z,99.90
2022-08-25T23:54:03.869Z,99.90
2022-08-25T23:56:33.897Z,99.90
2022-08-25T23:59:03.657Z,99.90
